»·PEaware :: AAL1972 KTUS-KGJT

AAL1972 :: KTUS-KGJT

FLIGHT INFORMATION

Flight Status: Arrived
Operator:
American Airlines
More flights by this operator :: More flights under this callsign
Pilot: Max W. (2591)
Aircraft: AIRBUS A320
(A320)
More flights by this aircraft type
Origin: KTUS Tucson Intl
United States
Destination: KGJT Walker
United States
More flights between these airports :: More routes between these airports
Route: +BURRO4 NOCHI ZUN J161 RSK J15 JNC
File this flight plan on PilotEdge
Remarks:
Altitude:
(Current/Filed)
35,000ft
Speed:
(Current/Filed)
400kts
Departed: 25-Oct-17 03:25 PM
Arrived: 25-Oct-17 04:35 PM
Distance/Time
Traveled:
436nm/1:09
Distance/Time
To Go:
Arrived

Flight Plot

Page will automatically refresh every two minutes.

Flight plan parsing failed; only flown route is shown


Map Options




Map Legend


Flown Route
Filed Route
Departure Airport
Arrival Airport
Navaid (VOR, NDB)
Fix

Horizontal Profiles

Position Reports

Time Latitude Longitude Heading Altitude Ground
Speed
25-Oct-17 14:56 32.118452 -110.936426 48 2600ft 0kts
25-Oct-17 14:57 32.118452 -110.936426 48 2600ft 0kts
25-Oct-17 14:58 32.118452 -110.936426 48 2600ft 0kts
25-Oct-17 14:59 32.118452 -110.936426 48 2600ft 0kts
25-Oct-17 15:00 32.118452 -110.936426 48 2600ft 0kts
25-Oct-17 15:01 32.118452 -110.936426 48 2600ft 0kts
25-Oct-17 15:02 32.118452 -110.936426 48 2600ft 0kts
25-Oct-17 15:03 32.118452 -110.936426 48 2600ft 0kts
25-Oct-17 15:04 32.118452 -110.936426 48 2600ft 0kts
25-Oct-17 15:05 32.118452 -110.936426 48 2600ft 0kts
25-Oct-17 15:06 32.118452 -110.936426 48 2600ft 0kts
25-Oct-17 15:07 32.118452 -110.936426 48 2600ft 0kts
25-Oct-17 15:08 32.118452 -110.936426 48 2600ft 0kts
25-Oct-17 15:09 32.118452 -110.936426 48 2600ft 0kts
25-Oct-17 15:10 32.118452 -110.936426 48 2600ft 0kts
25-Oct-17 15:11 32.118452 -110.936426 48 2600ft 0kts
25-Oct-17 15:12 32.118452 -110.936426 48 2600ft 0kts
25-Oct-17 15:13 32.118452 -110.936426 48 2600ft 0kts
25-Oct-17 15:14 32.118452 -110.936426 48 2600ft 0kts
25-Oct-17 15:15 32.118452 -110.936426 48 2600ft 0kts
25-Oct-17 15:16 32.118452 -110.936426 48 2600ft 0kts
25-Oct-17 15:17 32.118452 -110.936426 48 2600ft 0kts
25-Oct-17 15:18 32.118452 -110.936426 48 2600ft 0kts
25-Oct-17 15:19 32.118452 -110.936426 48 2600ft 0kts
25-Oct-17 15:20 32.118452 -110.936426 48 2600ft 0kts
25-Oct-17 15:21 32.118256 -110.936705 50 2600ft 2kts
25-Oct-17 15:22 32.117992 -110.937089 32 2600ft 0kts
25-Oct-17 15:23 32.117889 -110.937037 310 2600ft 0kts
25-Oct-17 15:24 32.117889 -110.937038 309 2600ft 0kts
25-Oct-17 15:25 32.117933 -110.937109 304 2600ft 5kts
25-Oct-17 15:26 32.120532 -110.942065 314 2600ft 25kts
25-Oct-17 15:27 32.125274 -110.947629 315 2600ft 2kts
25-Oct-17 15:28 32.124808 -110.947069 134 2600ft 14kts
25-Oct-17 15:29 32.123797 -110.946734 222 2600ft 14kts
25-Oct-17 15:30 32.109419 -110.931743 134 2883ft 174kts
25-Oct-17 15:31 32.070315 -110.886659 133 5572ft 225kts
25-Oct-17 15:32 32.019623 -110.827438 135 7655ft 283kts
25-Oct-17 15:33 31.998348 -110.742205 80 10349ft 312kts
25-Oct-17 15:34 32.060655 -110.662920 21 11697ft 373kts
25-Oct-17 15:35 32.158047 -110.614509 21 14091ft 385kts
25-Oct-17 15:36 32.256498 -110.565078 21 16507ft 388kts
25-Oct-17 15:37 32.356341 -110.514658 21 18609ft 396kts
25-Oct-17 15:38 32.459067 -110.462787 21 20290ft 410kts
25-Oct-17 15:39 32.564712 -110.409312 21 22166ft 415kts
25-Oct-17 15:40 32.671793 -110.354974 21 23773ft 423kts
25-Oct-17 15:41 32.779366 -110.300227 21 25056ft 434kts
25-Oct-17 15:42 32.891341 -110.243088 21 26208ft 446kts
25-Oct-17 15:43 33.006372 -110.184225 21 27273ft 457kts
25-Oct-17 15:44 33.123642 -110.124062 22 28271ft 467kts
25-Oct-17 15:45 33.241869 -110.063193 22 29190ft 475kts
25-Oct-17 15:46 33.362968 -110.000684 22 30363ft 475kts
25-Oct-17 15:47 33.483261 -109.938416 22 31663ft 471kts
25-Oct-17 15:48 33.602198 -109.876650 22 32923ft 466kts
25-Oct-17 15:49 33.720142 -109.815201 22 34041ft 462kts
25-Oct-17 15:50 33.837517 -109.753862 22 34912ft 462kts
25-Oct-17 15:51 33.955121 -109.693940 14 35370ft 460kts
25-Oct-17 15:52 34.079042 -109.664562 8 35359ft 458kts
25-Oct-17 15:53 34.200669 -109.636745 9 35358ft 459kts
25-Oct-17 15:54 34.322924 -109.608642 7 35330ft 453kts
25-Oct-17 15:55 34.445620 -109.580339 7 35278ft 448kts
25-Oct-17 15:56 34.567329 -109.552169 7 35233ft 446kts
25-Oct-17 15:57 34.685373 -109.524786 7 35232ft 446kts
25-Oct-17 15:58 34.803627 -109.497262 7 35249ft 446kts
25-Oct-17 15:59 34.921473 -109.469755 7 35267ft 447kts
25-Oct-17 16:00 35.040188 -109.441967 7 35331ft 447kts
25-Oct-17 16:01 35.157001 -109.414521 6 35344ft 448kts
25-Oct-17 16:02 35.273083 -109.387222 7 35345ft 448kts
25-Oct-17 16:03 35.394475 -109.358529 7 35341ft 448kts
25-Oct-17 16:04 35.514767 -109.330035 7 35332ft 448kts
25-Oct-17 16:05 35.636628 -109.301083 7 35333ft 448kts
25-Oct-17 16:06 35.757606 -109.272256 7 35334ft 452kts
25-Oct-17 16:07 35.882241 -109.242400 7 35341ft 460kts
25-Oct-17 16:08 36.007240 -109.212429 7 35341ft 460kts
25-Oct-17 16:09 36.129470 -109.183023 6 35340ft 459kts
25-Oct-17 16:10 36.250013 -109.153927 7 35282ft 459kts
25-Oct-17 16:11 36.374661 -109.123808 7 35292ft 459kts
25-Oct-17 16:12 36.499394 -109.093520 7 35293ft 459kts
25-Oct-17 16:13 36.624463 -109.063085 7 35308ft 459kts
25-Oct-17 16:14 36.748964 -109.032433 7 35312ft 459kts
25-Oct-17 16:15 36.873846 -109.001829 7 35312ft 459kts
25-Oct-17 16:16 36.976877 -108.976485 7 35312ft 459kts
25-Oct-17 16:17 37.121154 -108.940870 6 35312ft 465kts
25-Oct-17 16:18 37.244476 -108.910291 6 35312ft 464kts
25-Oct-17 16:19 37.370382 -108.878988 6 35311ft 464kts
25-Oct-17 16:20 37.475392 -108.852845 5 35314ft 463kts
25-Oct-17 16:21 37.622144 -108.816025 6 35312ft 464kts
25-Oct-17 16:22 37.727205 -108.789879 6 35314ft 463kts
25-Oct-17 16:23 37.851993 -108.758166 6 34253ft 455kts
25-Oct-17 16:24 37.997196 -108.721688 4 32043ft 463kts
25-Oct-17 16:25 38.120383 -108.690437 6 30062ft 466kts
25-Oct-17 16:26 38.221817 -108.664465 6 28837ft 442kts
25-Oct-17 16:27 38.340258 -108.634057 7 26032ft 431kts
25-Oct-17 16:28 38.454697 -108.609207 352 22914ft 404kts
25-Oct-17 16:29 38.559453 -108.638648 343 19871ft 379kts
25-Oct-17 16:30 38.658974 -108.669117 344 16787ft 362kts
25-Oct-17 16:31 38.754752 -108.698517 345 14000ft 353kts
25-Oct-17 16:32 38.843614 -108.673011 40 12102ft 348kts
25-Oct-17 16:33 38.905699 -108.599474 40 11809ft 263kts
25-Oct-17 16:34 38.956208 -108.539027 40 10369ft 243kts
25-Oct-17 16:35 39.003298 -108.482670 38 8556ft 236kts
25-Oct-17 16:36 39.055749 -108.436661 19 6963ft 221kts
25-Oct-17 16:37 39.096695 -108.454606 284 6282ft 174kts
25-Oct-17 16:38 39.105444 -108.488463 296 5454ft 152kts
25-Oct-17 16:39 39.115976 -108.509747 305 4946ft 148kts
25-Oct-17 16:40 39.123388 -108.525584 219 4809ft 0kts
25-Oct-17 16:41 39.122876 -108.524935 118 4809ft 10kts
25-Oct-17 16:42 39.120641 -108.522368 154 4809ft 12kts

Navigation Log

Ident Type
Flight plan parsing failed, navigation log unavailable